Time;durP1;ratioP1;P1;durP2;ratioP2;P2;SDS_P1;SDS_P2;PMS_P1;PMS_P2;Temp;Humidity;BMP_temperature;BMP_pressure;BME280_temperature;BME280_humidity;BME280_pressure;Samples;Min_cycle;Max_cycle;Signal;HPM_P1;HPM_P2
2024/04/15 00:00:43;;;;;;;1.83;1.42;;;;;;;11.67;100.00;97512.56;5267945;27;20104;-67
2024/04/15 00:03:09;;;;;;;2.80;1.25;;;;;;;11.59;100.00;97522.66;5261271;27;20001;-68
2024/04/15 00:05:37;;;;;;;2.00;1.80;;;;;;;11.64;100.00;97520.16;5296085;26;20012;-68
2024/04/15 00:08:03;;;;;;;1.55;1.45;;;;;;;11.66;100.00;97516.28;5263123;26;20009;-68
2024/04/15 00:10:30;;;;;;;1.90;1.80;;;;;;;11.70;100.00;97524.66;5249199;26;20423;-68
2024/04/15 00:12:56;;;;;;;1.73;1.48;;;;;;;11.72;100.00;97522.56;5248825;27;20002;-67
2024/04/15 00:15:22;;;;;;;4.32;1.33;;;;;;;11.65;100.00;97516.50;5213421;26;20073;-67
2024/04/15 00:17:51;;;;;;;1.83;1.27;;;;;;;11.60;100.00;97522.44;5266026;27;20021;-67
2024/04/15 00:20:17;;;;;;;2.83;1.83;;;;;;;11.48;100.00;97531.31;5298141;26;20013;-68
2024/04/15 00:22:43;;;;;;;1.50;1.30;;;;;;;11.41;100.00;97528.69;5304162;26;20032;-68
2024/04/15 00:25:09;;;;;;;2.67;1.00;;;;;;;11.37;100.00;97530.16;5321958;26;20012;-68
2024/04/15 00:27:34;;;;;;;4.47;1.50;;;;;;;11.30;100.00;97529.38;5350279;26;20100;-70
2024/04/15 00:30:00;;;;;;;2.80;1.40;;;;;;;11.27;100.00;97529.78;5380107;26;20423;-68
2024/04/15 00:32:26;;;;;;;2.38;1.20;;;;;;;11.04;100.00;97534.81;5322728;26;20008;-68
2024/04/15 00:34:52;;;;;;;1.80;1.30;;;;;;;11.01;100.00;97529.13;5350877;26;20423;-68
2024/04/15 00:37:18;;;;;;;3.28;1.20;;;;;;;10.97;100.00;97535.88;5324167;26;19996;-67
2024/04/15 00:39:44;;;;;;;3.95;1.52;;;;;;;10.89;100.00;97531.63;5322572;26;20095;-68
2024/04/15 00:42:09;;;;;;;1.52;1.27;;;;;;;10.93;100.00;97538.13;5380127;26;20066;-68
2024/04/15 00:44:35;;;;;;;1.98;1.20;;;;;;;10.85;100.00;97537.56;5323212;26;20011;-69
2024/04/15 00:47:02;;;;;;;1.17;1.00;;;;;;;10.91;100.00;97534.06;5382769;26;19996;-68
2024/04/15 00:49:37;;;;;;;2.78;1.10;;;;;;;10.87;100.00;97546.94;5322711;26;20000;-68
2024/04/15 00:52:04;;;;;;;1.92;1.10;;;;;;;10.81;100.00;97547.78;5381804;26;20475;-69
2024/04/15 00:54:32;;;;;;;1.38;1.10;;;;;;;10.79;100.00;97541.91;5322281;26;20015;-72
2024/04/15 00:56:59;;;;;;;2.83;1.30;;;;;;;10.85;100.00;97546.34;5321839;26;20004;-68
2024/04/15 00:59:26;;;;;;;1.25;1.10;;;;;;;10.66;100.00;97547.22;5350551;26;20123;-68
2024/04/15 01:01:52;;;;;;;2.92;1.20;;;;;;;10.73;100.00;97555.97;5350100;26;20966;-68
2024/04/15 01:04:18;;;;;;;1.77;1.10;;;;;;;10.57;100.00;97555.63;5350131;26;20004;-68
2024/04/15 01:06:45;;;;;;;2.00;1.20;;;;;;;10.43;100.00;97554.84;5293615;26;20397;-68
2024/04/15 01:09:10;;;;;;;2.92;1.30;;;;;;;10.36;100.00;97562.03;5353348;26;20004;-68
2024/04/15 01:11:36;;;;;;;1.73;1.58;;;;;;;10.27;100.00;97553.44;5321888;26;20445;-68
2024/04/15 01:14:02;;;;;;;1.52;1.00;;;;;;;10.30;100.00;97551.41;5379334;26;20004;-69
2024/04/15 01:16:39;;;;;;;1.20;0.93;;;;;;;10.42;100.00;97555.06;5379185;26;20024;-68
2024/04/15 01:19:05;;;;;;;2.45;1.30;;;;;;;10.25;100.00;97560.78;5292973;26;20000;-68
2024/04/15 01:21:31;;;;;;;1.77;0.90;;;;;;;10.13;100.00;97562.44;5321851;26;20000;-68
2024/04/15 01:23:58;;;;;;;1.63;1.00;;;;;;;10.12;100.00;97568.78;5378284;26;20007;-68
2024/04/15 01:26:24;;;;;;;1.42;1.10;;;;;;;9.99;100.00;97559.97;5292915;26;20323;-68
2024/04/15 01:28:50;;;;;;;1.23;1.02;;;;;;;9.89;100.00;97551.59;5321281;26;20007;-68
2024/04/15 01:31:16;;;;;;;1.17;1.00;;;;;;;9.83;100.00;97555.91;5350441;26;20011;-68
2024/04/15 01:33:41;;;;;;;1.83;0.82;;;;;;;9.85;100.00;97561.00;5350064;26;20036;-69
2024/04/15 01:36:07;;;;;;;1.10;1.00;;;;;;;9.80;100.00;97564.25;5349937;26;20488;-69
2024/04/15 01:38:34;;;;;;;1.38;1.00;;;;;;;9.74;100.00;97570.38;5321065;26;20019;-76
2024/04/15 01:41:00;;;;;;;1.55;1.00;;;;;;;9.77;100.00;97562.03;5321226;26;20036;-68
2024/04/15 01:43:26;;;;;;;2.70;1.20;;;;;;;9.64;100.00;97566.50;5378769;26;20011;-68
2024/04/15 01:45:53;;;;;;;2.15;1.20;;;;;;;9.66;100.00;97567.91;5320607;26;20016;-69
2024/04/15 01:48:19;;;;;;;3.17;1.10;;;;;;;9.51;100.00;97567.28;5349488;26;20000;-69
2024/04/15 01:50:45;;;;;;;2.90;1.30;;;;;;;9.40;100.00;97564.41;5320720;26;20361;-68
2024/04/15 01:53:11;;;;;;;2.97;1.20;;;;;;;9.36;100.00;97571.13;5349404;26;20052;-68
2024/04/15 01:55:38;;;;;;;3.78;1.20;;;;;;;9.42;100.00;97562.38;5320766;26;20001;-68
2024/04/15 01:58:04;;;;;;;3.50;1.30;;;;;;;9.32;100.00;97565.41;5320759;26;20004;-72
2024/04/15 02:00:30;;;;;;;1.80;1.02;;;;;;;9.25;100.00;97563.75;5378699;26;20000;-68
2024/04/15 02:02:56;;;;;;;4.53;1.00;;;;;;;9.22;100.00;97562.34;5349446;26;20015;-68
2024/04/15 02:05:22;;;;;;;2.88;1.20;;;;;;;9.20;100.00;97568.84;5349477;26;20024;-68
2024/04/15 02:07:48;;;;;;;2.60;1.00;;;;;;;9.09;100.00;97558.81;5320513;26;20108;-68
2024/04/15 02:10:14;;;;;;;2.17;1.10;;;;;;;9.06;100.00;97567.97;5320662;26;20004;-68
2024/04/15 02:12:40;;;;;;;3.75;1.17;;;;;;;9.01;100.00;97564.31;5378385;26;20008;-68
2024/04/15 02:15:07;;;;;;;1.13;1.02;;;;;;;8.82;100.00;97576.44;5294684;26;20001;-69
2024/04/15 02:17:33;;;;;;;1.63;1.08;;;;;;;8.90;100.00;97571.00;5381296;26;20012;-68
2024/04/15 02:19:59;;;;;;;2.65;1.00;;;;;;;8.80;100.00;97575.00;5320435;26;20123;-68
2024/04/15 02:22:25;;;;;;;5.22;1.20;;;;;;;8.84;100.00;97584.97;5320685;26;20486;-68
2024/04/15 02:24:51;;;;;;;4.75;1.15;;;;;;;8.81;100.00;97577.44;5291943;26;20050;-68
2024/04/15 02:27:18;;;;;;;2.25;1.10;;;;;;;8.93;100.00;97578.53;5348814;26;20426;-68
2024/04/15 02:29:44;;;;;;;3.38;0.90;;;;;;;8.76;100.00;97579.88;5349717;26;20004;-68
2024/04/15 02:32:10;;;;;;;3.38;1.17;;;;;;;8.68;100.00;97574.75;5320285;26;20000;-69
2024/04/15 02:34:36;;;;;;;2.90;1.10;;;;;;;8.75;100.00;97583.53;5320204;26;20070;-69
2024/04/15 02:37:02;;;;;;;3.05;1.17;;;;;;;8.80;100.00;97581.13;5380434;26;20000;-68
2024/04/15 02:39:27;;;;;;;2.13;1.27;;;;;;;8.77;100.00;97581.50;5323129;26;20070;-68
2024/04/15 02:41:53;;;;;;;3.17;1.13;;;;;;;8.69;100.00;97580.88;5323486;26;20004;-72
2024/04/15 02:44:19;;;;;;;1.58;1.00;;;;;;;8.77;100.00;97584.16;5351971;26;20069;-68
2024/04/15 02:46:45;;;;;;;1.70;1.25;;;;;;;8.80;100.00;97581.13;5351802;26;20040;-68
2024/04/15 02:49:11;;;;;;;1.55;0.98;;;;;;;8.80;100.00;97578.47;5351858;26;20000;-68
2024/04/15 02:51:36;;;;;;;2.97;1.00;;;;;;;8.81;100.00;97584.59;5323185;26;20015;-69
2024/04/15 02:54:02;;;;;;;3.05;1.48;;;;;;;8.86;100.00;97582.13;5324210;26;20014;-68
2024/04/15 02:56:28;;;;;;;4.70;2.05;;;;;;;8.79;100.00;97582.13;5324096;26;20004;-68
2024/04/15 02:58:54;;;;;;;5.07;1.77;;;;;;;8.77;100.00;97588.63;5352530;26;20011;-69
2024/04/15 03:01:19;;;;;;;8.55;3.22;;;;;;;8.77;100.00;97586.78;5351677;26;20014;-68
2024/04/15 03:03:46;;;;;;;5.43;2.65;;;;;;;8.77;100.00;97583.31;5351818;26;20011;-68
2024/04/15 03:06:11;;;;;;;6.32;2.40;;;;;;;8.74;100.00;97578.44;5322658;26;20004;-68
2024/04/15 03:08:39;;;;;;;2.70;1.83;;;;;;;8.85;100.00;97580.53;5322904;26;20019;-68
2024/04/15 03:11:09;;;;;;;4.10;2.13;;;;;;;8.80;100.00;97591.69;5351298;26;20435;-69
2024/04/15 03:13:36;;;;;;;6.70;2.35;;;;;;;8.71;100.00;97573.53;5323107;26;20320;-69
2024/04/15 03:16:01;;;;;;;5.97;3.13;;;;;;;8.73;100.00;97585.56;5381355;26;20077;-69
2024/04/15 03:18:27;;;;;;;4.38;2.38;;;;;;;8.78;100.00;97585.78;5323455;26;20012;-69
2024/04/15 03:20:53;;;;;;;4.63;2.00;;;;;;;8.82;100.00;97592.31;5288349;26;20428;-68
2024/04/15 03:23:19;;;;;;;5.00;2.30;;;;;;;8.87;100.00;97589.09;5318181;26;20004;-74
2024/04/15 03:25:44;;;;;;;3.80;2.58;;;;;;;8.90;100.00;97588.69;5319970;26;20041;-69
2024/04/15 03:28:10;;;;;;;3.90;2.33;;;;;;;8.95;100.00;97592.38;5318862;26;20001;-69
2024/04/15 03:30:36;;;;;;;3.65;2.42;;;;;;;8.94;100.00;97580.16;5289114;26;20020;-69
2024/04/15 03:33:02;;;;;;;5.25;2.83;;;;;;;8.90;100.00;97578.94;5317473;26;20469;-69
2024/04/15 03:35:30;;;;;;;4.55;3.58;;;;;;;8.83;100.00;97577.25;5319267;26;20288;-69
2024/04/15 03:37:56;;;;;;;5.82;2.88;;;;;;;8.91;100.00;97577.06;5374050;26;20327;-71
2024/04/15 03:40:23;;;;;;;3.60;2.45;;;;;;;8.97;100.00;97584.22;5376215;26;20004;-69
2024/04/15 03:42:49;;;;;;;4.38;2.15;;;;;;;8.98;100.00;97586.69;5347126;26;20020;-70
2024/04/15 03:45:16;;;;;;;4.50;2.58;;;;;;;9.04;100.00;97585.09;5307479;26;20441;-71
2024/04/15 03:47:42;;;;;;;3.70;2.17;;;;;;;9.05;100.00;97576.94;5312624;26;20103;-70
2024/04/15 03:50:08;;;;;;;5.90;2.00;;;;;;;9.05;100.00;97576.94;5371132;26;20500;-75
2024/04/15 03:52:34;;;;;;;2.72;1.70;;;;;;;9.09;100.00;97580.00;5307994;26;20008;-69
2024/04/15 03:55:01;;;;;;;2.03;1.75;;;;;;;9.10;100.00;97574.50;5293713;26;20012;-69
2024/04/15 03:57:27;;;;;;;2.15;1.60;;;;;;;9.14;100.00;97578.41;5283574;26;20072;-69
2024/04/15 03:59:53;;;;;;;1.88;1.50;;;;;;;9.21;100.00;97584.53;5322441;26;20083;-69
2024/04/15 04:02:19;;;;;;;2.58;1.45;;;;;;;9.23;100.00;97579.84;5287731;26;20023;-70
2024/04/15 04:04:47;;;;;;;5.80;1.80;;;;;;;9.41;100.00;97587.25;5315476;26;20485;-70
2024/04/15 04:07:13;;;;;;;3.30;1.20;;;;;;;9.34;100.00;97584.56;5294055;26;20033;-70
2024/04/15 04:09:41;;;;;;;2.15;1.42;;;;;;;9.37;100.00;97578.88;5363534;26;20024;-71
2024/04/15 04:12:08;;;;;;;3.30;1.52;;;;;;;9.34;100.00;97584.56;5215435;27;20017;-68
2024/04/15 04:14:34;;;;;;;4.07;1.17;;;;;;;9.40;100.00;97580.28;5208507;27;20004;-68
2024/04/15 04:17:01;;;;;;;3.40;1.52;;;;;;;9.38;100.00;97585.78;5179105;27;20028;-69
2024/04/15 04:19:28;;;;;;;3.50;1.42;;;;;;;9.43;100.00;97578.06;5165723;27;20042;-67
2024/04/15 04:21:53;;;;;;;7.07;2.03;;;;;;;9.45;100.00;97576.03;5171355;27;20007;-68
2024/04/15 04:24:19;;;;;;;6.60;1.50;;;;;;;9.44;100.00;97577.03;5127425;27;20003;-68
2024/04/15 04:26:45;;;;;;;4.20;1.25;;;;;;;9.55;100.00;97584.41;5127230;27;20036;-68
2024/04/15 04:29:11;;;;;;;2.85;1.33;;;;;;;9.62;100.00;97582.59;5127028;27;20032;-69
2024/04/15 04:31:37;;;;;;;4.20;1.40;;;;;;;9.56;100.00;97586.03;5118844;27;20003;-70
2024/04/15 04:34:04;;;;;;;2.72;1.67;;;;;;;9.64;100.00;97583.19;5185519;27;19999;-69
2024/04/15 04:36:30;;;;;;;2.97;1.50;;;;;;;9.54;100.00;97581.97;5213951;27;20054;-71
2024/04/15 04:38:56;;;;;;;7.13;1.88;;;;;;;9.44;100.00;97586.84;5158369;27;20070;-68
2024/04/15 04:41:22;;;;;;;3.78;1.45;;;;;;;9.49;100.00;97579.09;5132338;27;19999;-66
2024/04/15 04:43:48;;;;;;;6.68;1.30;;;;;;;9.51;100.00;97577.88;5263399;26;20313;-66
2024/04/15 04:46:14;;;;;;;4.05;1.40;;;;;;;9.48;100.00;97593.38;5258200;26;19997;-67
2024/04/15 04:48:40;;;;;;;4.25;1.30;;;;;;;9.54;100.00;97588.09;5286754;26;20025;-71
2024/04/15 04:51:10;;;;;;;2.40;1.10;;;;;;;9.67;100.00;97582.00;5307367;26;20012;-67
2024/04/15 04:53:37;;;;;;;4.80;1.30;;;;;;;9.46;100.00;97576.84;5351707;26;20012;-67
2024/04/15 04:56:07;;;;;;;3.22;1.10;;;;;;;9.75;100.00;97579.13;5351917;26;20374;-69
2024/04/15 04:58:33;;;;;;;3.33;1.08;;;;;;;9.54;100.00;97580.13;5379210;26;20005;-68
2024/04/15 05:01:14;;;;;;;3.83;1.20;;;;;;;9.87;100.00;97582.81;5377906;26;20000;-67
2024/04/15 05:03:41;;;;;;;2.03;1.15;;;;;;;9.82;100.00;97593.22;5294242;26;20015;-67
2024/04/15 05:06:08;;;;;;;4.72;1.15;;;;;;;9.74;100.00;97586.28;5322029;26;20438;-67
2024/04/15 05:08:35;;;;;;;3.38;1.20;;;;;;;9.87;100.00;97593.44;5379596;26;20004;-67
2024/04/15 05:11:01;;;;;;;5.15;1.20;;;;;;;9.97;100.00;97583.22;5350696;26;20000;-66
2024/04/15 05:13:28;;;;;;;3.90;1.27;;;;;;;10.13;100.00;97591.59;5350460;26;20112;-67
2024/04/15 05:16:07;;;;;;;1.55;1.08;;;;;;;10.32;100.00;97583.88;5321636;26;20018;-67
2024/04/15 05:18:34;;;;;;;3.70;1.23;;;;;;;10.33;100.00;97586.31;5350358;26;20445;-68
2024/04/15 05:21:01;;;;;;;2.90;1.20;;;;;;;10.18;100.00;97577.72;5350254;26;20000;-68
2024/04/15 05:23:27;;;;;;;3.78;1.60;;;;;;;10.16;100.00;97580.59;5349956;26;20004;-68
2024/04/15 05:25:54;;;;;;;8.50;1.92;;;;;;;10.33;100.00;97586.31;5321455;26;20010;-68
2024/04/15 05:28:20;;;;;;;5.97;1.40;;;;;;;10.41;100.00;97580.75;5293113;26;20000;-68
2024/04/15 05:30:46;;;;;;;3.42;1.20;;;;;;;10.47;100.00;97582.59;5350279;26;20433;-68
2024/04/15 05:33:12;;;;;;;2.92;1.05;;;;;;;10.55;100.00;97582.38;5350218;26;20040;-68
2024/04/15 05:35:38;;;;;;;8.80;1.50;;;;;;;10.49;100.00;97577.06;5293000;26;20032;-68
2024/04/15 05:38:04;;;;;;;3.30;1.10;;;;;;;10.49;100.00;97577.91;5378901;26;20439;-68
2024/04/15 05:40:30;;;;;;;2.47;1.10;;;;;;;10.43;100.00;97565.47;5320925;26;20048;-68
2024/04/15 05:42:55;;;;;;;2.90;1.00;;;;;;;10.41;100.00;97559.53;5321356;26;20012;-68
2024/04/15 05:45:21;;;;;;;2.70;0.80;;;;;;;10.48;100.00;97568.31;5349923;26;20004;-68
2024/04/15 05:47:47;;;;;;;3.50;0.95;;;;;;;10.28;100.00;97559.56;5350652;26;20000;-69
2024/04/15 05:50:13;;;;;;;2.67;1.00;;;;;;;10.44;100.00;97558.31;5321553;26;20095;-69
2024/04/15 05:52:39;;;;;;;8.35;1.50;;;;;;;10.32;100.00;97558.13;5321699;26;20028;-69
2024/04/15 05:55:05;;;;;;;3.10;1.27;;;;;;;10.45;100.00;97546.69;5350107;26;20007;-69
2024/04/15 05:57:31;;;;;;;4.88;1.13;;;;;;;10.58;100.00;97541.34;5321133;26;20011;-69
2024/04/15 05:59:57;;;;;;;4.45;0.90;;;;;;;10.58;100.00;97538.69;5321461;26;20330;-69
2024/04/15 06:02:23;;;;;;;2.90;1.10;;;;;;;10.81;100.00;97547.78;5322633;26;20015;-70
2024/04/15 06:04:50;;;;;;;3.45;1.20;;;;;;;10.64;100.00;97538.66;5322676;26;20004;-69
2024/04/15 06:07:17;;;;;;;5.18;1.10;;;;;;;10.88;100.00;97526.53;5350813;26;20111;-69
2024/04/15 06:09:43;;;;;;;4.50;1.13;;;;;;;11.11;100.00;97540.94;5321338;26;20016;-69
2024/04/15 06:12:09;;;;;;;2.95;1.15;;;;;;;11.42;100.00;97540.13;5321635;26;20367;-69
2024/04/15 06:14:35;;;;;;;7.75;1.23;;;;;;;11.59;100.00;97522.66;5379403;26;20004;-69
2024/04/15 06:17:00;;;;;;;3.42;1.10;;;;;;;11.64;100.00;97528.97;5379037;26;20000;-69
2024/04/15 06:19:27;;;;;;;4.65;1.02;;;;;;;11.36;100.00;97512.56;5321890;26;20005;-69
2024/04/15 06:21:54;;;;;;;3.15;1.17;;;;;;;11.29;100.00;97511.81;5350776;26;20319;-69
2024/04/15 06:24:20;;;;;;;2.55;0.90;;;;;;;11.25;100.00;97509.78;5351926;26;20033;-70
2024/04/15 06:26:48;;;;;;;3.53;1.17;;;;;;;11.14;100.00;97492.69;5322889;26;20012;-75
2024/04/15 06:29:15;;;;;;;5.70;1.10;;;;;;;11.25;100.00;97504.47;5321504;26;20043;-69
2024/04/15 06:31:41;;;;;;;10.68;1.30;;;;;;;11.36;100.00;97503.78;5349456;26;20000;-70
2024/04/15 06:34:06;;;;;;;3.40;1.25;;;;;;;11.64;100.00;97493.56;5320967;26;20015;-69
2024/04/15 06:36:33;;;;;;;4.53;1.20;;;;;;;12.07;100.00;97489.09;5320998;26;20004;-69
2024/04/15 06:38:59;;;;;;;5.35;0.98;;;;;;;12.37;100.00;97492.72;5320818;26;20040;-70
2024/04/15 06:41:25;;;;;;;5.00;1.35;;;;;;;12.57;100.00;97489.81;5320697;26;20005;-69
2024/04/15 06:43:51;;;;;;;3.72;1.10;;;;;;;12.08;100.00;97490.75;5378126;26;20011;-69
2024/04/15 06:46:18;;;;;;;2.90;1.10;;;;;;;11.99;100.00;97460.16;5320922;26;20004;-69
2024/04/15 06:48:43;;;;;;;3.40;1.20;;;;;;;11.81;100.00;97474.22;5378198;26;20011;-69
2024/04/15 06:51:10;;;;;;;3.70;1.67;;;;;;;11.93;100.00;97472.47;5349000;26;20008;-69
2024/04/15 06:53:36;;;;;;;4.72;1.40;;;;;;;11.94;100.00;97507.88;5320514;26;20004;-69
2024/04/15 06:56:02;;;;;;;6.40;1.38;;;;;;;12.07;100.00;97467.03;5377901;26;20000;-69
2024/04/15 06:58:29;;;;;;;5.45;1.48;;;;;;;12.07;100.00;97470.47;5348672;26;20418;-69
2024/04/15 07:00:56;;;;;;;4.07;1.10;;;;;;;12.22;100.00;97472.81;5349298;26;20391;-69
2024/04/15 07:03:23;;;;;;;4.15;1.20;;;;;;;12.19;100.00;97473.25;5320983;26;20303;-70
2024/04/15 07:05:49;;;;;;;3.83;1.25;;;;;;;12.08;100.00;97490.75;5321722;26;20019;-70
2024/04/15 07:08:15;;;;;;;7.50;1.40;;;;;;;12.22;100.00;97464.81;5379174;26;20004;-69
2024/04/15 07:10:41;;;;;;;7.70;1.58;;;;;;;12.14;100.00;97481.06;5349644;26;20000;-69
2024/04/15 07:13:08;;;;;;;2.83;1.23;;;;;;;12.34;100.00;97490.50;5320551;26;20037;-70
2024/04/15 07:15:36;;;;;;;4.70;1.17;;;;;;;12.63;100.00;97481.75;5318248;26;20354;-70
2024/04/15 07:18:02;;;;;;;10.52;1.85;;;;;;;12.87;100.00;97480.03;5319056;26;20072;-71
2024/04/15 07:20:28;;;;;;;2.72;1.13;;;;;;;13.25;100.00;97472.56;5265638;26;20023;-69
2024/04/15 07:22:55;;;;;;;3.97;1.08;;;;;;;13.39;100.00;97469.47;5323086;26;20502;-70
2024/04/15 07:25:21;;;;;;;5.10;1.02;;;;;;;13.50;100.00;97487.34;5293898;26;19996;-70
2024/04/15 07:27:46;;;;;;;4.90;1.42;;;;;;;13.98;100.00;97479.19;5293637;26;19997;-71
2024/04/15 07:30:12;;;;;;;2.33;0.93;;;;;;;14.49;100.00;97478.47;5294334;26;20008;-69
2024/04/15 07:32:38;;;;;;;3.22;0.90;;;;;;;14.98;100.00;97468.00;5293221;26;20123;-70
2024/04/15 07:35:05;;;;;;;4.40;1.02;;;;;;;14.56;100.00;97484.53;5293385;26;20001;-70
2024/04/15 07:37:31;;;;;;;4.72;2.35;;;;;;;13.90;100.00;97468.06;5265343;26;20000;-70
2024/04/15 07:39:57;;;;;;;6.35;1.30;;;;;;;15.04;100.00;97442.19;5293316;26;20495;-70
2024/04/15 07:42:23;;;;;;;7.65;1.65;;;;;;;14.69;95.42;97460.22;5265542;26;20007;-70
2024/04/15 07:44:49;;;;;;;5.50;2.53;;;;;;;15.94;91.89;97459.81;5293391;26;20011;-70
2024/04/15 07:47:15;;;;;;;5.78;1.70;;;;;;;16.10;72.23;97444.78;5270347;26;20367;-70
2024/04/15 07:49:41;;;;;;;8.90;3.88;;;;;;;16.76;73.30;97466.88;5355119;26;20011;-70
2024/04/15 07:52:08;;;;;;;17.02;2.15;;;;;;;19.33;61.94;97480.41;5351989;26;20008;-72
2024/04/15 07:54:34;;;;;;;5.20;1.95;;;;;;;19.95;52.05;97500.72;5325134;26;20007;-72
2024/04/15 07:56:59;;;;;;;3.03;1.10;;;;;;;18.82;49.56;97479.41;5352391;26;20000;-71
2024/04/15 07:59:25;;;;;;;8.57;1.25;;;;;;;17.89;50.68;97506.19;5351354;26;20000;-71
2024/04/15 08:01:51;;;;;;;3.28;1.20;;;;;;;16.38;56.21;97482.97;5322837;26;20065;-74
2024/04/15 08:04:17;;;;;;;5.47;1.10;;;;;;;15.00;74.63;97479.28;5323130;26;20435;-70
2024/04/15 08:06:46;;;;;;;8.35;1.45;;;;;;;14.82;73.81;97484.00;5322799;26;20000;-70
2024/04/15 08:09:12;;;;;;;3.97;1.38;;;;;;;15.07;76.29;97493.31;5323606;26;20288;-70
2024/04/15 08:11:38;;;;;;;5.38;1.25;;;;;;;14.06;79.70;97478.00;5322851;26;20015;-70
2024/04/15 08:14:04;;;;;;;6.47;0.90;;;;;;;13.91;83.99;97475.00;5351648;26;20033;-70
2024/04/15 08:16:30;;;;;;;5.68;1.20;;;;;;;13.92;81.46;97473.94;5294822;26;20070;-70
2024/04/15 08:18:56;;;;;;;3.17;1.15;;;;;;;13.74;82.30;97485.56;5351251;26;20015;-70
2024/04/15 08:21:22;;;;;;;4.40;1.00;;;;;;;13.56;89.27;97458.97;5351652;26;20083;-70
2024/04/15 08:23:48;;;;;;;2.28;1.00;;;;;;;13.70;93.15;97470.22;5294496;26;20476;-70
2024/04/15 08:26:15;;;;;;;6.07;1.58;;;;;;;12.53;94.50;97457.50;5351281;26;20033;-70
2024/04/15 08:28:41;;;;;;;4.40;1.13;;;;;;;12.66;98.51;97427.22;5380445;26;20004;-69
2024/04/15 08:31:07;;;;;;;7.20;0.95;;;;;;;12.49;100.00;97480.28;5322293;26;20015;-71
2024/04/15 08:33:33;;;;;;;5.68;1.52;;;;;;;12.66;100.00;97475.97;5322926;26;20004;-69
2024/04/15 08:36:01;;;;;;;4.25;1.85;;;;;;;12.84;98.26;97509.78;5323488;26;20011;-70
2024/04/15 08:38:28;;;;;;;7.00;4.45;;;;;;;15.34;81.55;97472.16;5351734;26;20012;-70
2024/04/15 08:40:57;;;;;;;6.97;1.40;;;;;;;15.93;58.50;97478.81;5294206;26;20000;-71
2024/04/15 08:43:25;;;;;;;7.25;3.92;;;;;;;17.24;60.34;97484.03;5351217;26;20112;-70
2024/04/15 08:45:58;;;;;;;6.43;4.22;;;;;;;18.89;41.84;97509.56;5380072;26;20442;-70
2024/04/15 08:48:26;;;;;;;6.43;1.13;;;;;;;17.59;40.46;97466.44;5322831;26;20007;-71
2024/04/15 08:50:56;;;;;;;5.32;1.30;;;;;;;17.02;44.28;97467.19;5351119;26;20032;-70
2024/04/15 08:53:23;;;;;;;7.23;2.07;;;;;;;15.86;50.31;97478.97;5351334;26;20071;-70
2024/04/15 08:55:49;;;;;;;4.65;1.00;;;;;;;15.62;52.35;97487.38;5380126;26;20004;-70
2024/04/15 08:58:16;;;;;;;4.88;1.23;;;;;;;14.38;53.85;97490.81;5321881;26;20299;-70
2024/04/15 09:00:42;;;;;;;5.72;2.15;;;;;;;14.68;61.95;97482.63;5351248;26;20000;-70
2024/04/15 09:03:09;;;;;;;4.93;2.65;;;;;;;15.12;60.30;97453.31;5350475;26;20024;-72
2024/04/15 09:05:38;;;;;;;10.65;1.40;;;;;;;15.20;57.52;97484.19;5350952;26;20422;-70
2024/04/15 09:08:04;;;;;;;4.78;1.60;;;;;;;14.83;63.28;97472.25;5380258;26;20015;-70
2024/04/15 09:10:30;;;;;;;5.57;1.20;;;;;;;14.30;63.94;97482.34;5352579;26;20004;-70
2024/04/15 09:12:56;;;;;;;4.93;1.40;;;;;;;13.72;66.94;97473.47;5352899;26;20019;-71
2024/04/15 09:15:27;;;;;;;4.28;1.20;;;;;;;13.16;73.32;97496.03;5323918;26;20004;-70
2024/04/15 09:17:54;;;;;;;7.80;1.23;;;;;;;12.56;78.99;97486.31;5323093;26;20000;-70
2024/04/15 09:20:21;;;;;;;4.32;1.20;;;;;;;12.87;82.48;97482.72;5322787;26;20004;-73
2024/04/15 09:22:47;;;;;;;4.80;1.50;;;;;;;12.72;82.67;97477.75;5351194;26;20012;-70
2024/04/15 09:25:13;;;;;;;3.97;1.25;;;;;;;12.62;85.46;97464.16;5351051;26;20458;-69
2024/04/15 09:27:39;;;;;;;3.72;1.30;;;;;;;12.53;84.64;97454.81;5321673;26;20000;-70
2024/04/15 09:30:07;;;;;;;3.47;1.30;;;;;;;12.63;87.41;97463.13;5350481;26;20014;-70
2024/04/15 09:32:35;;;;;;;3.33;1.27;;;;;;;12.95;84.59;97451.22;5294629;26;20011;-70
2024/04/15 09:35:05;;;;;;;4.90;1.42;;;;;;;12.65;83.66;97474.38;5323824;26;20016;-70
2024/04/15 09:37:34;;;;;;;4.03;1.17;;;;;;;12.86;85.12;97473.88;5286662;26;20129;-70
2024/04/15 09:40:07;;;;;;;4.78;1.00;;;;;;;13.18;83.19;97469.16;5286928;26;20439;-70
2024/04/15 09:42:34;;;;;;;3.78;1.17;;;;;;;13.11;83.15;97477.28;5287154;26;20012;-69
2024/04/15 09:45:00;;;;;;;1.55;0.90;;;;;;;12.90;86.93;97464.41;5257178;26;19997;-70
2024/04/15 09:47:26;;;;;;;6.68;1.45;;;;;;;12.62;89.54;97456.19;5257785;26;19997;-71
2024/04/15 09:49:52;;;;;;;3.05;1.08;;;;;;;12.70;89.64;97466.50;5257654;26;20000;-70
2024/04/15 09:52:22;;;;;;;4.47;1.10;;;;;;;12.72;93.92;97442.31;5314252;26;20008;-70
2024/04/15 09:54:53;;;;;;;4.82;1.23;;;;;;;12.92;93.11;97446.34;5257493;26;20044;-69
2024/04/15 09:57:18;;;;;;;;;;;;;;;13.44;90.56;97452.78;5257629;26;20008;-70
2024/04/15 09:59:45;;;;;;;1.85;0.80;;;;;;;13.36;89.33;97440.59;5285051;26;19926;-70
2024/04/15 10:02:33;;;;;;;3.10;1.20;;;;;;;12.82;90.29;97474.56;5256996;26;20012;-70
2024/04/15 10:05:03;;;;;;;3.75;1.30;;;;;;;12.62;94.66;97440.19;5257330;26;20014;-70
2024/04/15 10:07:30;;;;;;;2.10;0.85;;;;;;;12.45;92.77;97425.03;5316619;26;20009;-70
2024/04/15 10:09:58;;;;;;;4.30;1.00;;;;;;;12.22;97.78;97441.69;5349758;26;20007;-71
2024/04/15 10:12:24;;;;;;;3.22;1.10;;;;;;;11.66;98.18;97430.38;5321804;26;19996;-69
2024/04/15 10:14:50;;;;;;;5.97;1.20;;;;;;;11.86;100.00;97428.34;5349722;26;20439;-70
2024/04/15 10:17:18;;;;;;;2.00;0.80;;;;;;;11.97;100.00;97448.91;5292629;26;20000;-70
2024/04/15 10:19:46;;;;;;;3.67;1.10;;;;;;;11.79;100.00;97449.69;5292182;26;20006;-70
2024/04/15 10:22:15;;;;;;;5.65;1.00;;;;;;;11.89;100.00;97443.88;5320752;26;20065;-70
2024/04/15 10:24:41;;;;;;;3.25;0.98;;;;;;;11.64;100.00;97443.06;5378482;26;20000;-70
2024/04/15 10:27:09;;;;;;;4.88;1.08;;;;;;;11.99;100.00;97465.47;5320677;26;20011;-71
2024/04/15 10:29:40;;;;;;;1.85;1.00;;;;;;;12.10;100.00;97450.63;5349448;26;19996;-71
2024/04/15 10:32:07;;;;;;;4.72;1.40;;;;;;;11.57;100.00;97444.94;5349279;26;20000;-70
2024/04/15 10:34:40;;;;;;;3.75;1.20;;;;;;;11.56;100.00;97443.34;5349204;26;20439;-70
2024/04/15 10:37:08;;;;;;;2.88;1.10;;;;;;;11.68;100.00;97430.97;5292479;26;20036;-70
2024/04/15 10:39:43;;;;;;;5.80;1.30;;;;;;;11.58;100.00;97450.03;5321934;26;20016;-69
2024/04/15 10:42:09;;;;;;;5.30;0.95;;;;;;;11.57;100.00;97464.38;5380488;26;20008;-70
2024/04/15 10:44:35;;;;;;;3.60;1.20;;;;;;;11.52;100.00;97440.28;5378442;26;20004;-70
2024/04/15 10:47:01;;;;;;;8.57;1.17;;;;;;;11.62;100.00;97453.91;5292319;26;20011;-71
2024/04/15 10:49:28;;;;;;;4.07;0.90;;;;;;;11.62;100.00;97432.66;5293060;26;20426;-71
2024/04/15 10:51:55;;;;;;;2.17;0.80;;;;;;;11.70;100.00;97442.22;5350615;26;20004;-69
2024/04/15 10:54:21;;;;;;;6.40;1.42;;;;;;;11.82;100.00;97435.16;5321429;26;20067;-70
2024/04/15 10:56:47;;;;;;;2.15;1.05;;;;;;;11.86;100.00;97433.66;5320647;26;20419;-70
2024/04/15 10:59:15;;;;;;;5.78;1.23;;;;;;;11.81;100.00;97441.47;5323869;26;20012;-70
2024/04/15 11:01:47;;;;;;;4.88;0.95;;;;;;;11.75;100.00;97434.38;5353788;26;20441;-69
2024/04/15 11:04:13;;;;;;;3.28;1.10;;;;;;;11.77;100.00;97438.47;5353814;26;20046;-70
2024/04/15 11:06:41;;;;;;;3.92;1.00;;;;;;;11.71;100.00;97419.91;5352227;26;20004;-70
2024/04/15 11:09:08;;;;;;;2.67;1.15;;;;;;;11.50;100.00;97433.56;5323527;26;20004;-74
2024/04/15 11:11:38;;;;;;;4.10;0.97;;;;;;;11.56;100.00;97432.69;5322465;26;19997;-70
2024/04/15 11:14:10;;;;;;;2.30;0.90;;;;;;;11.60;100.00;97418.75;5322541;26;20644;-71
2024/04/15 11:16:36;;;;;;;3.22;1.05;;;;;;;11.17;100.00;97464.88;5247768;27;20018;-72
2024/04/15 11:19:07;;;;;;;5.65;0.93;;;;;;;11.43;100.00;97422.16;5165747;27;20492;-70
2024/04/15 11:21:38;;;;;;;6.15;1.45;;;;;;;11.05;100.00;97437.38;5210987;27;20002;-72
2024/04/15 11:24:07;;;;;;;5.13;1.23;;;;;;;10.96;100.00;97417.41;5220069;27;20002;-69
2024/04/15 11:26:36;;;;;;;3.83;1.67;;;;;;;11.26;100.00;97434.34;5165660;27;20049;-69